sensor_id;sensor_type;location;lat;lon;timestamp;P1;durP1;ratioP1;P2;durP2;ratioP2
11646;SDS011;5880;52.342;9.662;2022-09-09T00:02:22;1.73;;;1.30;;
11646;SDS011;5880;52.342;9.662;2022-09-09T00:04:59;1.73;;;1.10;;
11646;SDS011;5880;52.342;9.662;2022-09-09T00:07:52;1.25;;;1.15;;
11646;SDS011;5880;52.342;9.662;2022-09-09T00:10:39;1.45;;;1.27;;
11646;SDS011;5880;52.342;9.662;2022-09-09T00:15:59;1.33;;;1.10;;
11646;SDS011;5880;52.342;9.662;2022-09-09T00:22:22;2.08;;;1.40;;
11646;SDS011;5880;52.342;9.662;2022-09-09T00:29:41;1.45;;;1.30;;
11646;SDS011;5880;52.342;9.662;2022-09-09T00:32:14;1.67;;;1.20;;
11646;SDS011;5880;52.342;9.662;2022-09-09T00:34:53;1.55;;;1.17;;
11646;SDS011;5880;52.342;9.662;2022-09-09T00:37:27;1.20;;;1.10;;
11646;SDS011;5880;52.342;9.662;2022-09-09T00:39:57;1.27;;;1.00;;
11646;SDS011;5880;52.342;9.662;2022-09-09T00:42:34;1.20;;;1.10;;
11646;SDS011;5880;52.342;9.662;2022-09-09T00:48:04;1.23;;;1.13;;
11646;SDS011;5880;52.342;9.662;2022-09-09T00:50:53;0.90;;;0.90;;
11646;SDS011;5880;52.342;9.662;2022-09-09T00:56:23;0.73;;;0.73;;
11646;SDS011;5880;52.342;9.662;2022-09-09T00:59:32;0.80;;;0.77;;
11646;SDS011;5880;52.342;9.662;2022-09-09T01:02:31;1.40;;;1.05;;
11646;SDS011;5880;52.342;9.662;2022-09-09T01:05:15;0.80;;;0.80;;
11646;SDS011;5880;52.342;9.662;2022-09-09T01:07:53;2.67;;;0.80;;
11646;SDS011;5880;52.342;9.662;2022-09-09T01:10:40;0.88;;;0.80;;
11646;SDS011;5880;52.342;9.662;2022-09-09T01:13:34;0.85;;;0.80;;
11646;SDS011;5880;52.342;9.662;2022-09-09T01:16:02;2.30;;;1.05;;
11646;SDS011;5880;52.342;9.662;2022-09-09T01:18:34;0.98;;;0.85;;
11646;SDS011;5880;52.342;9.662;2022-09-09T01:27:05;0.57;;;0.50;;
11646;SDS011;5880;52.342;9.662;2022-09-09T01:29:33;0.75;;;0.75;;
11646;SDS011;5880;52.342;9.662;2022-09-09T01:32:02;0.60;;;0.60;;
11646;SDS011;5880;52.342;9.662;2022-09-09T01:35:07;1.13;;;0.70;;
11646;SDS011;5880;52.342;9.662;2022-09-09T01:37:40;0.52;;;0.52;;
11646;SDS011;5880;52.342;9.662;2022-09-09T01:40:06;1.00;;;0.70;;
11646;SDS011;5880;52.342;9.662;2022-09-09T01:42:34;0.95;;;0.70;;
11646;SDS011;5880;52.342;9.662;2022-09-09T01:45:00;1.35;;;0.80;;
11646;SDS011;5880;52.342;9.662;2022-09-09T01:47:25;0.65;;;0.65;;
11646;SDS011;5880;52.342;9.662;2022-09-09T01:49:52;0.85;;;0.70;;
11646;SDS011;5880;52.342;9.662;2022-09-09T01:52:17;0.70;;;0.70;;
11646;SDS011;5880;52.342;9.662;2022-09-09T01:54:43;0.70;;;0.68;;
11646;SDS011;5880;52.342;9.662;2022-09-09T01:57:15;1.33;;;0.68;;
11646;SDS011;5880;52.342;9.662;2022-09-09T01:59:56;0.70;;;0.70;;
11646;SDS011;5880;52.342;9.662;2022-09-09T02:02:40;0.60;;;0.60;;
11646;SDS011;5880;52.342;9.662;2022-09-09T02:08:45;2.08;;;0.70;;
11646;SDS011;5880;52.342;9.662;2022-09-09T02:11:16;1.27;;;0.82;;
11646;SDS011;5880;52.342;9.662;2022-09-09T02:13:48;0.63;;;0.52;;
11646;SDS011;5880;52.342;9.662;2022-09-09T02:16:31;1.55;;;0.70;;
11646;SDS011;5880;52.342;9.662;2022-09-09T02:19:16;0.90;;;0.60;;
11646;SDS011;5880;52.342;9.662;2022-09-09T02:21:53;0.60;;;0.60;;
11646;SDS011;5880;52.342;9.662;2022-09-09T02:24:22;0.80;;;0.60;;
11646;SDS011;5880;52.342;9.662;2022-09-09T02:26:49;0.68;;;0.68;;
11646;SDS011;5880;52.342;9.662;2022-09-09T02:29:31;0.60;;;0.60;;
11646;SDS011;5880;52.342;9.662;2022-09-09T02:32:04;0.90;;;0.60;;
11646;SDS011;5880;52.342;9.662;2022-09-09T02:34:43;1.13;;;0.73;;
11646;SDS011;5880;52.342;9.662;2022-09-09T02:37:17;1.45;;;0.80;;
11646;SDS011;5880;52.342;9.662;2022-09-09T02:39:49;0.57;;;0.57;;
11646;SDS011;5880;52.342;9.662;2022-09-09T02:42:15;0.75;;;0.63;;
11646;SDS011;5880;52.342;9.662;2022-09-09T02:44:42;1.73;;;0.90;;
11646;SDS011;5880;52.342;9.662;2022-09-09T02:53:00;0.82;;;0.65;;
11646;SDS011;5880;52.342;9.662;2022-09-09T02:55:37;0.70;;;0.70;;
11646;SDS011;5880;52.342;9.662;2022-09-09T02:58:11;0.70;;;0.70;;
11646;SDS011;5880;52.342;9.662;2022-09-09T03:00:47;0.82;;;0.80;;
11646;SDS011;5880;52.342;9.662;2022-09-09T03:03:15;1.02;;;0.80;;
11646;SDS011;5880;52.342;9.662;2022-09-09T03:05:44;0.68;;;0.68;;
11646;SDS011;5880;52.342;9.662;2022-09-09T03:08:11;1.00;;;0.90;;
11646;SDS011;5880;52.342;9.662;2022-09-09T03:10:37;2.47;;;0.75;;
11646;SDS011;5880;52.342;9.662;2022-09-09T03:13:03;0.75;;;0.75;;
11646;SDS011;5880;52.342;9.662;2022-09-09T03:15:30;0.95;;;0.85;;
11646;SDS011;5880;52.342;9.662;2022-09-09T03:17:58;1.50;;;0.88;;
11646;SDS011;5880;52.342;9.662;2022-09-09T03:20:24;1.13;;;0.93;;
11646;SDS011;5880;52.342;9.662;2022-09-09T03:22:53;1.00;;;0.77;;
11646;SDS011;5880;52.342;9.662;2022-09-09T03:25:19;0.90;;;0.88;;
11646;SDS011;5880;52.342;9.662;2022-09-09T03:27:45;1.00;;;0.80;;
11646;SDS011;5880;52.342;9.662;2022-09-09T03:30:11;1.58;;;0.80;;
11646;SDS011;5880;52.342;9.662;2022-09-09T03:32:37;1.80;;;0.90;;
11646;SDS011;5880;52.342;9.662;2022-09-09T03:35:03;2.08;;;1.00;;
11646;SDS011;5880;52.342;9.662;2022-09-09T03:37:29;0.80;;;0.80;;
11646;SDS011;5880;52.342;9.662;2022-09-09T03:39:56;0.98;;;0.75;;
11646;SDS011;5880;52.342;9.662;2022-09-09T03:42:22;0.70;;;0.70;;
11646;SDS011;5880;52.342;9.662;2022-09-09T03:44:47;1.25;;;0.80;;
11646;SDS011;5880;52.342;9.662;2022-09-09T03:47:16;0.90;;;0.77;;
11646;SDS011;5880;52.342;9.662;2022-09-09T03:49:46;1.70;;;0.85;;
11646;SDS011;5880;52.342;9.662;2022-09-09T03:52:13;0.90;;;0.63;;
11646;SDS011;5880;52.342;9.662;2022-09-09T03:54:40;1.17;;;0.70;;
11646;SDS011;5880;52.342;9.662;2022-09-09T03:57:07;0.73;;;0.70;;
11646;SDS011;5880;52.342;9.662;2022-09-09T03:59:36;1.08;;;0.95;;
11646;SDS011;5880;52.342;9.662;2022-09-09T04:02:03;1.50;;;0.95;;
11646;SDS011;5880;52.342;9.662;2022-09-09T04:04:29;1.65;;;0.95;;
11646;SDS011;5880;52.342;9.662;2022-09-09T04:06:55;1.02;;;0.85;;
11646;SDS011;5880;52.342;9.662;2022-09-09T04:09:20;1.17;;;0.90;;
11646;SDS011;5880;52.342;9.662;2022-09-09T04:11:46;1.30;;;0.80;;
11646;SDS011;5880;52.342;9.662;2022-09-09T04:14:12;1.77;;;1.00;;
11646;SDS011;5880;52.342;9.662;2022-09-09T04:16:38;3.72;;;0.88;;
11646;SDS011;5880;52.342;9.662;2022-09-09T04:19:04;1.10;;;0.90;;
11646;SDS011;5880;52.342;9.662;2022-09-09T04:21:31;1.63;;;0.90;;
11646;SDS011;5880;52.342;9.662;2022-09-09T04:23:57;1.38;;;1.08;;
11646;SDS011;5880;52.342;9.662;2022-09-09T04:26:23;1.00;;;0.90;;
11646;SDS011;5880;52.342;9.662;2022-09-09T04:28:49;1.20;;;1.10;;
11646;SDS011;5880;52.342;9.662;2022-09-09T04:31:19;0.80;;;0.80;;
11646;SDS011;5880;52.342;9.662;2022-09-09T04:33:48;1.42;;;0.95;;
11646;SDS011;5880;52.342;9.662;2022-09-09T04:36:15;1.63;;;1.05;;
11646;SDS011;5880;52.342;9.662;2022-09-09T04:38:44;1.15;;;0.90;;
11646;SDS011;5880;52.342;9.662;2022-09-09T04:41:11;1.05;;;0.90;;
11646;SDS011;5880;52.342;9.662;2022-09-09T04:43:38;0.90;;;0.90;;
11646;SDS011;5880;52.342;9.662;2022-09-09T04:46:04;2.30;;;1.05;;
11646;SDS011;5880;52.342;9.662;2022-09-09T04:48:31;1.38;;;1.00;;
11646;SDS011;5880;52.342;9.662;2022-09-09T04:50:58;1.20;;;1.10;;
11646;SDS011;5880;52.342;9.662;2022-09-09T04:53:32;0.80;;;0.80;;
11646;SDS011;5880;52.342;9.662;2022-09-09T04:56:05;1.65;;;1.00;;
11646;SDS011;5880;52.342;9.662;2022-09-09T04:58:37;1.33;;;1.10;;
11646;SDS011;5880;52.342;9.662;2022-09-09T05:01:08;1.50;;;0.95;;
11646;SDS011;5880;52.342;9.662;2022-09-09T05:03:46;1.05;;;0.98;;
11646;SDS011;5880;52.342;9.662;2022-09-09T05:06:16;1.67;;;1.00;;
11646;SDS011;5880;52.342;9.662;2022-09-09T05:08:44;1.40;;;1.10;;
11646;SDS011;5880;52.342;9.662;2022-09-09T05:11:17;1.38;;;1.00;;
11646;SDS011;5880;52.342;9.662;2022-09-09T05:13:47;2.22;;;1.05;;
11646;SDS011;5880;52.342;9.662;2022-09-09T05:16:15;1.10;;;0.90;;
11646;SDS011;5880;52.342;9.662;2022-09-09T05:18:42;2.13;;;1.20;;
11646;SDS011;5880;52.342;9.662;2022-09-09T05:21:11;1.33;;;1.00;;
11646;SDS011;5880;52.342;9.662;2022-09-09T05:23:39;0.80;;;0.80;;
11646;SDS011;5880;52.342;9.662;2022-09-09T05:26:05;1.88;;;1.05;;
11646;SDS011;5880;52.342;9.662;2022-09-09T05:28:36;1.10;;;1.00;;
11646;SDS011;5880;52.342;9.662;2022-09-09T05:31:03;2.55;;;1.20;;
11646;SDS011;5880;52.342;9.662;2022-09-09T05:33:36;1.00;;;0.93;;
11646;SDS011;5880;52.342;9.662;2022-09-09T05:36:06;1.90;;;1.13;;
11646;SDS011;5880;52.342;9.662;2022-09-09T05:38:41;2.55;;;1.48;;
11646;SDS011;5880;52.342;9.662;2022-09-09T05:41:08;1.40;;;1.10;;
11646;SDS011;5880;52.342;9.662;2022-09-09T05:43:36;2.08;;;1.20;;
11646;SDS011;5880;52.342;9.662;2022-09-09T05:46:07;1.10;;;1.00;;
11646;SDS011;5880;52.342;9.662;2022-09-09T05:48:35;1.27;;;1.17;;
11646;SDS011;5880;52.342;9.662;2022-09-09T05:51:08;1.42;;;1.00;;
11646;SDS011;5880;52.342;9.662;2022-09-09T05:53:37;0.95;;;0.90;;
11646;SDS011;5880;52.342;9.662;2022-09-09T05:56:04;1.25;;;1.00;;
11646;SDS011;5880;52.342;9.662;2022-09-09T05:58:36;2.20;;;0.90;;
11646;SDS011;5880;52.342;9.662;2022-09-09T06:01:03;1.23;;;1.00;;
11646;SDS011;5880;52.342;9.662;2022-09-09T06:03:37;1.45;;;1.10;;
11646;SDS011;5880;52.342;9.662;2022-09-09T06:06:06;1.00;;;1.00;;
11646;SDS011;5880;52.342;9.662;2022-09-09T06:08:37;2.55;;;0.82;;
11646;SDS011;5880;52.342;9.662;2022-09-09T06:11:05;1.52;;;1.00;;
11646;SDS011;5880;52.342;9.662;2022-09-09T06:13:40;1.23;;;1.00;;
11646;SDS011;5880;52.342;9.662;2022-09-09T06:16:08;1.10;;;1.00;;
11646;SDS011;5880;52.342;9.662;2022-09-09T06:18:36;2.00;;;1.20;;
11646;SDS011;5880;52.342;9.662;2022-09-09T06:21:06;1.58;;;1.08;;
11646;SDS011;5880;52.342;9.662;2022-09-09T06:23:36;2.78;;;1.27;;
11646;SDS011;5880;52.342;9.662;2022-09-09T06:26:12;1.98;;;1.05;;
11646;SDS011;5880;52.342;9.662;2022-09-09T06:28:46;2.85;;;1.17;;
11646;SDS011;5880;52.342;9.662;2022-09-09T06:31:14;1.05;;;0.88;;
11646;SDS011;5880;52.342;9.662;2022-09-09T06:33:46;1.63;;;1.10;;
11646;SDS011;5880;52.342;9.662;2022-09-09T06:36:13;4.35;;;1.10;;
11646;SDS011;5880;52.342;9.662;2022-09-09T06:38:43;2.42;;;1.10;;
11646;SDS011;5880;52.342;9.662;2022-09-09T06:41:10;0.93;;;0.88;;
11646;SDS011;5880;52.342;9.662;2022-09-09T06:43:38;0.85;;;0.85;;
11646;SDS011;5880;52.342;9.662;2022-09-09T06:48:34;1.20;;;1.10;;
11646;SDS011;5880;52.342;9.662;2022-09-09T06:53:31;1.70;;;1.00;;
11646;SDS011;5880;52.342;9.662;2022-09-09T06:56:03;1.25;;;1.15;;
11646;SDS011;5880;52.342;9.662;2022-09-09T06:58:47;2.63;;;1.25;;
11646;SDS011;5880;52.342;9.662;2022-09-09T07:01:18;1.30;;;1.20;;
11646;SDS011;5880;52.342;9.662;2022-09-09T07:03:48;1.60;;;1.10;;
11646;SDS011;5880;52.342;9.662;2022-09-09T07:06:18;1.30;;;1.02;;
11646;SDS011;5880;52.342;9.662;2022-09-09T07:08:49;1.02;;;0.98;;
11646;SDS011;5880;52.342;9.662;2022-09-09T07:11:19;1.88;;;1.10;;
11646;SDS011;5880;52.342;9.662;2022-09-09T07:13:48;2.90;;;1.00;;
11646;SDS011;5880;52.342;9.662;2022-09-09T07:16:15;1.80;;;1.20;;
11646;SDS011;5880;52.342;9.662;2022-09-09T07:18:44;2.50;;;1.45;;
11646;SDS011;5880;52.342;9.662;2022-09-09T07:21:10;2.25;;;1.27;;
11646;SDS011;5880;52.342;9.662;2022-09-09T07:23:39;1.75;;;1.20;;
11646;SDS011;5880;52.342;9.662;2022-09-09T07:26:13;2.25;;;1.20;;
11646;SDS011;5880;52.342;9.662;2022-09-09T07:28:42;1.35;;;1.10;;
11646;SDS011;5880;52.342;9.662;2022-09-09T07:31:15;1.33;;;1.00;;
11646;SDS011;5880;52.342;9.662;2022-09-09T07:33:47;1.10;;;0.98;;
11646;SDS011;5880;52.342;9.662;2022-09-09T07:36:20;1.92;;;1.30;;
11646;SDS011;5880;52.342;9.662;2022-09-09T07:38:53;2.10;;;1.10;;
11646;SDS011;5880;52.342;9.662;2022-09-09T07:41:26;1.20;;;0.90;;
11646;SDS011;5880;52.342;9.662;2022-09-09T07:44:05;1.90;;;1.20;;
11646;SDS011;5880;52.342;9.662;2022-09-09T07:46:35;1.55;;;0.90;;
11646;SDS011;5880;52.342;9.662;2022-09-09T07:49:04;1.23;;;0.90;;
11646;SDS011;5880;52.342;9.662;2022-09-09T07:51:31;1.70;;;1.00;;
11646;SDS011;5880;52.342;9.662;2022-09-09T07:54:04;2.15;;;1.25;;
11646;SDS011;5880;52.342;9.662;2022-09-09T07:56:34;3.58;;;1.13;;
11646;SDS011;5880;52.342;9.662;2022-09-09T07:59:02;1.20;;;1.10;;
11646;SDS011;5880;52.342;9.662;2022-09-09T08:01:30;1.23;;;1.13;;
11646;SDS011;5880;52.342;9.662;2022-09-09T08:04:00;2.30;;;1.10;;
11646;SDS011;5880;52.342;9.662;2022-09-09T08:06:37;1.20;;;1.00;;
11646;SDS011;5880;52.342;9.662;2022-09-09T08:09:05;1.63;;;1.00;;
11646;SDS011;5880;52.342;9.662;2022-09-09T08:11:32;2.65;;;1.15;;
11646;SDS011;5880;52.342;9.662;2022-09-09T08:14:00;2.00;;;1.05;;
11646;SDS011;5880;52.342;9.662;2022-09-09T08:16:28;1.58;;;1.05;;
11646;SDS011;5880;52.342;9.662;2022-09-09T08:18:58;1.30;;;0.98;;
11646;SDS011;5880;52.342;9.662;2022-09-09T08:21:25;1.85;;;1.20;;
11646;SDS011;5880;52.342;9.662;2022-09-09T08:23:55;1.67;;;1.00;;
11646;SDS011;5880;52.342;9.662;2022-09-09T08:26:23;2.00;;;0.80;;
11646;SDS011;5880;52.342;9.662;2022-09-09T08:28:54;1.55;;;0.93;;
11646;SDS011;5880;52.342;9.662;2022-09-09T08:31:23;2.05;;;1.10;;
11646;SDS011;5880;52.342;9.662;2022-09-09T08:33:55;1.55;;;1.20;;
11646;SDS011;5880;52.342;9.662;2022-09-09T08:36:25;2.20;;;1.00;;
11646;SDS011;5880;52.342;9.662;2022-09-09T08:38:54;1.27;;;1.00;;
11646;SDS011;5880;52.342;9.662;2022-09-09T08:50:13;1.58;;;1.00;;
11646;SDS011;5880;52.342;9.662;2022-09-09T08:52:53;1.35;;;0.90;;
11646;SDS011;5880;52.342;9.662;2022-09-09T08:58:31;2.58;;;1.17;;
11646;SDS011;5880;52.342;9.662;2022-09-09T09:11:51;1.50;;;1.05;;
11646;SDS011;5880;52.342;9.662;2022-09-09T09:14:34;3.15;;;1.10;;
11646;SDS011;5880;52.342;9.662;2022-09-09T09:17:04;1.58;;;1.13;;
11646;SDS011;5880;52.342;9.662;2022-09-09T09:19:41;1.17;;;0.90;;
11646;SDS011;5880;52.342;9.662;2022-09-09T09:22:22;1.65;;;1.00;;
11646;SDS011;5880;52.342;9.662;2022-09-09T09:25:22;1.63;;;1.00;;
11646;SDS011;5880;52.342;9.662;2022-09-09T09:28:00;1.67;;;1.00;;
11646;SDS011;5880;52.342;9.662;2022-09-09T09:30:35;1.23;;;1.13;;
11646;SDS011;5880;52.342;9.662;2022-09-09T09:33:47;2.22;;;1.08;;
11646;SDS011;5880;52.342;9.662;2022-09-09T09:36:18;0.90;;;0.80;;
11646;SDS011;5880;52.342;9.662;2022-09-09T09:38:58;1.80;;;1.15;;
11646;SDS011;5880;52.342;9.662;2022-09-09T09:41:29;1.13;;;0.93;;
11646;SDS011;5880;52.342;9.662;2022-09-09T09:43:59;2.42;;;1.10;;
11646;SDS011;5880;52.342;9.662;2022-09-09T09:46:26;1.75;;;0.80;;
11646;SDS011;5880;52.342;9.662;2022-09-09T09:48:56;1.13;;;0.95;;
11646;SDS011;5880;52.342;9.662;2022-09-09T09:51:28;0.95;;;0.90;;
11646;SDS011;5880;52.342;9.662;2022-09-09T09:54:31;3.13;;;0.95;;
11646;SDS011;5880;52.342;9.662;2022-09-09T09:56:55;2.30;;;1.20;;
11646;SDS011;5880;52.342;9.662;2022-09-09T09:59:22;2.83;;;1.30;;
11646;SDS011;5880;52.342;9.662;2022-09-09T10:01:54;2.10;;;1.35;;
11646;SDS011;5880;52.342;9.662;2022-09-09T10:04:38;1.75;;;1.00;;
11646;SDS011;5880;52.342;9.662;2022-09-09T10:07:19;1.08;;;1.00;;
11646;SDS011;5880;52.342;9.662;2022-09-09T10:09:54;1.67;;;1.02;;
11646;SDS011;5880;52.342;9.662;2022-09-09T10:12:24;1.23;;;1.10;;
11646;SDS011;5880;52.342;9.662;2022-09-09T10:15:29;3.30;;;1.40;;
11646;SDS011;5880;52.342;9.662;2022-09-09T10:18:36;2.28;;;1.40;;
11646;SDS011;5880;52.342;9.662;2022-09-09T10:30:20;1.67;;;1.20;;
11646;SDS011;5880;52.342;9.662;2022-09-09T10:33:06;3.05;;;1.35;;
11646;SDS011;5880;52.342;9.662;2022-09-09T10:38:40;1.73;;;1.30;;
11646;SDS011;5880;52.342;9.662;2022-09-09T10:41:15;1.88;;;1.20;;
11646;SDS011;5880;52.342;9.662;2022-09-09T10:46:38;2.45;;;0.95;;
11646;SDS011;5880;52.342;9.662;2022-09-09T10:52:56;1.20;;;0.93;;
11646;SDS011;5880;52.342;9.662;2022-09-09T10:55:50;1.58;;;1.00;;
11646;SDS011;5880;52.342;9.662;2022-09-09T10:58:26;1.10;;;0.90;;
11646;SDS011;5880;52.342;9.662;2022-09-09T11:01:06;1.02;;;0.90;;
11646;SDS011;5880;52.342;9.662;2022-09-09T11:03:43;1.98;;;0.80;;
11646;SDS011;5880;52.342;9.662;2022-09-09T11:06:28;2.90;;;1.17;;
11646;SDS011;5880;52.342;9.662;2022-09-09T11:09:13;1.45;;;1.10;;
11646;SDS011;5880;52.342;9.662;2022-09-09T11:11:54;2.38;;;1.10;;
11646;SDS011;5880;52.342;9.662;2022-09-09T11:14:29;1.20;;;1.00;;
11646;SDS011;5880;52.342;9.662;2022-09-09T11:17:23;2.53;;;1.23;;
11646;SDS011;5880;52.342;9.662;2022-09-09T11:19:58;1.70;;;1.10;;
11646;SDS011;5880;52.342;9.662;2022-09-09T11:22:29;1.83;;;1.10;;
11646;SDS011;5880;52.342;9.662;2022-09-09T11:30:42;2.55;;;1.30;;
11646;SDS011;5880;52.342;9.662;2022-09-09T11:33:26;1.67;;;0.93;;
11646;SDS011;5880;52.342;9.662;2022-09-09T11:36:25;1.50;;;0.90;;
11646;SDS011;5880;52.342;9.662;2022-09-09T11:39:44;2.28;;;0.80;;
11646;SDS011;5880;52.342;9.662;2022-09-09T11:42:38;1.73;;;0.63;;
11646;SDS011;5880;52.342;9.662;2022-09-09T11:45:21;0.45;;;0.45;;
11646;SDS011;5880;52.342;9.662;2022-09-09T11:47:51;1.25;;;0.63;;
11646;SDS011;5880;52.342;9.662;2022-09-09T11:52:46;1.10;;;0.50;;
11646;SDS011;5880;52.342;9.662;2022-09-09T11:55:30;1.85;;;0.60;;
11646;SDS011;5880;52.342;9.662;2022-09-09T12:03:55;1.75;;;0.80;;
11646;SDS011;5880;52.342;9.662;2022-09-09T12:06:33;1.75;;;0.88;;
11646;SDS011;5880;52.342;9.662;2022-09-09T12:12:07;2.92;;;1.00;;
11646;SDS011;5880;52.342;9.662;2022-09-09T12:14:37;2.08;;;0.73;;
11646;SDS011;5880;52.342;9.662;2022-09-09T12:17:43;0.60;;;0.60;;
11646;SDS011;5880;52.342;9.662;2022-09-09T12:26:13;1.02;;;0.75;;
11646;SDS011;5880;52.342;9.662;2022-09-09T12:32:12;0.60;;;0.50;;
11646;SDS011;5880;52.342;9.662;2022-09-09T12:34:44;1.38;;;0.70;;
11646;SDS011;5880;52.342;9.662;2022-09-09T12:40:23;1.13;;;0.70;;
11646;SDS011;5880;52.342;9.662;2022-09-09T12:42:50;1.60;;;0.82;;
11646;SDS011;5880;52.342;9.662;2022-09-09T12:45:17;0.55;;;0.55;;
11646;SDS011;5880;52.342;9.662;2022-09-09T12:48:05;0.60;;;0.50;;
11646;SDS011;5880;52.342;9.662;2022-09-09T12:50:37;1.20;;;0.70;;
11646;SDS011;5880;52.342;9.662;2022-09-09T12:53:11;1.27;;;0.70;;
11646;SDS011;5880;52.342;9.662;2022-09-09T12:55:49;0.70;;;0.57;;
11646;SDS011;5880;52.342;9.662;2022-09-09T12:58:18;1.23;;;0.70;;
11646;SDS011;5880;52.342;9.662;2022-09-09T13:00:49;0.40;;;0.40;;
11646;SDS011;5880;52.342;9.662;2022-09-09T13:03:22;1.45;;;0.80;;
11646;SDS011;5880;52.342;9.662;2022-09-09T13:05:50;0.90;;;0.52;;
11646;SDS011;5880;52.342;9.662;2022-09-09T13:08:18;0.82;;;0.60;;
11646;SDS011;5880;52.342;9.662;2022-09-09T13:13:36;0.60;;;0.55;;
11646;SDS011;5880;52.342;9.662;2022-09-09T13:16:06;0.70;;;0.60;;
11646;SDS011;5880;52.342;9.662;2022-09-09T13:18:45;1.30;;;0.68;;
11646;SDS011;5880;52.342;9.662;2022-09-09T13:21:11;1.05;;;0.70;;
11646;SDS011;5880;52.342;9.662;2022-09-09T13:23:37;1.10;;;0.57;;
11646;SDS011;5880;52.342;9.662;2022-09-09T13:26:05;0.73;;;0.60;;
11646;SDS011;5880;52.342;9.662;2022-09-09T13:28:46;0.93;;;0.70;;
11646;SDS011;5880;52.342;9.662;2022-09-09T13:31:20;1.60;;;0.60;;
11646;SDS011;5880;52.342;9.662;2022-09-09T13:33:54;1.80;;;0.80;;
11646;SDS011;5880;52.342;9.662;2022-09-09T13:36:30;1.23;;;0.90;;
11646;SDS011;5880;52.342;9.662;2022-09-09T13:38:59;1.05;;;0.80;;
11646;SDS011;5880;52.342;9.662;2022-09-09T13:41:29;1.38;;;0.93;;
11646;SDS011;5880;52.342;9.662;2022-09-09T13:44:21;1.20;;;0.82;;
11646;SDS011;5880;52.342;9.662;2022-09-09T13:47:06;1.00;;;0.80;;
11646;SDS011;5880;52.342;9.662;2022-09-09T13:49:45;0.77;;;0.77;;
11646;SDS011;5880;52.342;9.662;2022-09-09T13:54:39;1.63;;;0.93;;
11646;SDS011;5880;52.342;9.662;2022-09-09T13:57:13;1.33;;;0.80;;
11646;SDS011;5880;52.342;9.662;2022-09-09T13:59:46;1.10;;;0.77;;
11646;SDS011;5880;52.342;9.662;2022-09-09T14:02:12;1.63;;;0.93;;
11646;SDS011;5880;52.342;9.662;2022-09-09T14:04:39;0.88;;;0.70;;
11646;SDS011;5880;52.342;9.662;2022-09-09T14:07:08;0.60;;;0.60;;
11646;SDS011;5880;52.342;9.662;2022-09-09T14:09:38;1.20;;;0.73;;
11646;SDS011;5880;52.342;9.662;2022-09-09T14:12:05;1.20;;;0.70;;
11646;SDS011;5880;52.342;9.662;2022-09-09T14:14:35;1.70;;;0.80;;
11646;SDS011;5880;52.342;9.662;2022-09-09T14:17:01;0.77;;;0.60;;
11646;SDS011;5880;52.342;9.662;2022-09-09T14:19:26;1.15;;;0.80;;
11646;SDS011;5880;52.342;9.662;2022-09-09T14:21:52;0.70;;;0.68;;
11646;SDS011;5880;52.342;9.662;2022-09-09T14:24:17;0.85;;;0.73;;
11646;SDS011;5880;52.342;9.662;2022-09-09T14:26:43;1.50;;;0.88;;
11646;SDS011;5880;52.342;9.662;2022-09-09T14:29:09;1.00;;;0.90;;
11646;SDS011;5880;52.342;9.662;2022-09-09T14:31:35;2.60;;;1.00;;
11646;SDS011;5880;52.342;9.662;2022-09-09T14:34:00;2.65;;;1.20;;
11646;SDS011;5880;52.342;9.662;2022-09-09T14:36:26;1.95;;;1.30;;
11646;SDS011;5880;52.342;9.662;2022-09-09T14:38:52;0.88;;;0.88;;
11646;SDS011;5880;52.342;9.662;2022-09-09T14:41:18;1.50;;;0.90;;
11646;SDS011;5880;52.342;9.662;2022-09-09T14:43:47;3.70;;;2.17;;
11646;SDS011;5880;52.342;9.662;2022-09-09T14:46:14;6.38;;;2.78;;
11646;SDS011;5880;52.342;9.662;2022-09-09T14:48:42;2.30;;;1.45;;
11646;SDS011;5880;52.342;9.662;2022-09-09T14:51:14;5.65;;;2.33;;
11646;SDS011;5880;52.342;9.662;2022-09-09T14:53:52;6.07;;;2.90;;
11646;SDS011;5880;52.342;9.662;2022-09-09T14:56:24;3.42;;;1.95;;
11646;SDS011;5880;52.342;9.662;2022-09-09T14:58:53;3.08;;;1.40;;
11646;SDS011;5880;52.342;9.662;2022-09-09T15:01:20;2.60;;;1.02;;
11646;SDS011;5880;52.342;9.662;2022-09-09T15:03:51;1.95;;;1.10;;
11646;SDS011;5880;52.342;9.662;2022-09-09T15:06:22;1.25;;;0.80;;
11646;SDS011;5880;52.342;9.662;2022-09-09T15:08:50;1.42;;;0.90;;
11646;SDS011;5880;52.342;9.662;2022-09-09T15:11:17;1.20;;;0.68;;
11646;SDS011;5880;52.342;9.662;2022-09-09T15:13:45;1.25;;;0.65;;
11646;SDS011;5880;52.342;9.662;2022-09-09T15:16:15;1.27;;;0.75;;
11646;SDS011;5880;52.342;9.662;2022-09-09T15:18:43;1.77;;;0.90;;
11646;SDS011;5880;52.342;9.662;2022-09-09T15:21:12;0.82;;;0.70;;
11646;SDS011;5880;52.342;9.662;2022-09-09T15:23:41;0.80;;;0.80;;
11646;SDS011;5880;52.342;9.662;2022-09-09T15:26:08;0.95;;;0.70;;
11646;SDS011;5880;52.342;9.662;2022-09-09T15:28:36;0.88;;;0.60;;
11646;SDS011;5880;52.342;9.662;2022-09-09T15:31:09;0.60;;;0.50;;
11646;SDS011;5880;52.342;9.662;2022-09-09T15:36:26;1.70;;;1.00;;
11646;SDS011;5880;52.342;9.662;2022-09-09T15:38:58;2.25;;;1.10;;
11646;SDS011;5880;52.342;9.662;2022-09-09T15:41:26;1.77;;;1.00;;
11646;SDS011;5880;52.342;9.662;2022-09-09T15:43:54;1.92;;;1.20;;
11646;SDS011;5880;52.342;9.662;2022-09-09T15:49:15;1.90;;;1.15;;
11646;SDS011;5880;52.342;9.662;2022-09-09T15:51:54;1.33;;;1.10;;
11646;SDS011;5880;52.342;9.662;2022-09-09T15:54:24;2.47;;;1.27;;
11646;SDS011;5880;52.342;9.662;2022-09-09T15:56:52;1.52;;;1.25;;
11646;SDS011;5880;52.342;9.662;2022-09-09T15:59:24;2.38;;;1.38;;
11646;SDS011;5880;52.342;9.662;2022-09-09T16:01:53;2.42;;;1.17;;
11646;SDS011;5880;52.342;9.662;2022-09-09T16:04:19;1.67;;;1.30;;
11646;SDS011;5880;52.342;9.662;2022-09-09T16:06:51;1.33;;;1.10;;
11646;SDS011;5880;52.342;9.662;2022-09-09T16:09:18;2.38;;;1.10;;
11646;SDS011;5880;52.342;9.662;2022-09-09T16:11:44;2.03;;;1.38;;
11646;SDS011;5880;52.342;9.662;2022-09-09T16:14:11;1.80;;;1.30;;
11646;SDS011;5880;52.342;9.662;2022-09-09T16:16:40;1.50;;;1.20;;
11646;SDS011;5880;52.342;9.662;2022-09-09T16:19:08;5.25;;;1.50;;
11646;SDS011;5880;52.342;9.662;2022-09-09T16:21:41;2.22;;;1.13;;
11646;SDS011;5880;52.342;9.662;2022-09-09T16:24:13;2.78;;;1.38;;
11646;SDS011;5880;52.342;9.662;2022-09-09T16:26:43;2.80;;;1.70;;
11646;SDS011;5880;52.342;9.662;2022-09-09T16:29:12;2.10;;;1.65;;
11646;SDS011;5880;52.342;9.662;2022-09-09T16:31:39;2.35;;;1.50;;
11646;SDS011;5880;52.342;9.662;2022-09-09T16:34:06;1.85;;;1.10;;
11646;SDS011;5880;52.342;9.662;2022-09-09T16:36:33;2.03;;;1.02;;
11646;SDS011;5880;52.342;9.662;2022-09-09T16:39:05;2.35;;;1.40;;
11646;SDS011;5880;52.342;9.662;2022-09-09T16:41:34;1.75;;;1.20;;
11646;SDS011;5880;52.342;9.662;2022-09-09T16:44:02;1.67;;;1.23;;
11646;SDS011;5880;52.342;9.662;2022-09-09T16:46:31;2.05;;;1.20;;
11646;SDS011;5880;52.342;9.662;2022-09-09T16:49:05;1.73;;;1.20;;
11646;SDS011;5880;52.342;9.662;2022-09-09T16:51:36;1.60;;;1.13;;
11646;SDS011;5880;52.342;9.662;2022-09-09T16:54:05;2.47;;;1.40;;
11646;SDS011;5880;52.342;9.662;2022-09-09T16:56:34;2.33;;;1.23;;
11646;SDS011;5880;52.342;9.662;2022-09-09T16:59:04;1.40;;;1.20;;
11646;SDS011;5880;52.342;9.662;2022-09-09T17:01:36;2.22;;;1.20;;
11646;SDS011;5880;52.342;9.662;2022-09-09T17:04:06;1.98;;;1.42;;
11646;SDS011;5880;52.342;9.662;2022-09-09T17:06:35;2.05;;;1.50;;
11646;SDS011;5880;52.342;9.662;2022-09-09T17:09:05;2.53;;;1.17;;
11646;SDS011;5880;52.342;9.662;2022-09-09T17:11:34;1.52;;;1.38;;
11646;SDS011;5880;52.342;9.662;2022-09-09T17:14:00;1.98;;;1.60;;
11646;SDS011;5880;52.342;9.662;2022-09-09T17:16:28;1.38;;;1.20;;
11646;SDS011;5880;52.342;9.662;2022-09-09T17:18:56;2.83;;;1.48;;
11646;SDS011;5880;52.342;9.662;2022-09-09T17:21:26;1.30;;;1.13;;
11646;SDS011;5880;52.342;9.662;2022-09-09T17:23:54;1.17;;;1.08;;
11646;SDS011;5880;52.342;9.662;2022-09-09T17:26:22;1.30;;;1.15;;
11646;SDS011;5880;52.342;9.662;2022-09-09T17:28:52;1.80;;;1.10;;
11646;SDS011;5880;52.342;9.662;2022-09-09T17:31:20;1.30;;;0.90;;